createdAt,value
2019-06-10T00:00:31.259Z,40.68
2019-06-10T00:05:34.693Z,40.82
2019-06-10T00:10:38.155Z,41.11
2019-06-10T00:15:41.635Z,41.42
2019-06-10T00:20:45.259Z,41.53
2019-06-10T00:25:51.403Z,41.58
2019-06-10T00:30:53.908Z,41.42
2019-06-10T00:35:57.369Z,41.32
2019-06-10T00:41:03.929Z,41.34
2019-06-10T00:46:07.458Z,41.36
2019-06-10T00:51:13.093Z,41.35
2019-06-10T00:56:16.495Z,41.47
2019-06-10T01:01:21.955Z,41.49
2019-06-10T01:06:25.146Z,41.78
2019-06-10T01:11:30.869Z,41.78
2019-06-10T01:16:33.823Z,41.58
2019-06-10T01:21:37.337Z,41.65
2019-06-10T01:26:41.238Z,41.59
2019-06-10T01:31:44.849Z,41.59
2019-06-10T01:36:50.782Z,41.62
2019-06-10T01:41:54.361Z,42.06
2019-06-10T01:46:57.825Z,42.81
2019-06-10T01:52:01.782Z,42.99
2019-06-10T01:57:05.231Z,43.30
2019-06-10T02:02:16.157Z,43.39
2019-06-10T02:07:19.986Z,43.00
2019-06-10T02:12:24.290Z,43.27
2019-06-10T02:17:27.789Z,43.93
2019-06-10T02:22:31.825Z,44.03
2019-06-10T02:27:35.416Z,44.25
2019-06-10T02:32:38.887Z,44.46
2019-06-10T02:37:44.508Z,44.48
2019-06-10T02:42:49.209Z,44.77
2019-06-10T02:47:53.447Z,45.08
2019-06-10T02:52:56.917Z,45.16
2019-06-10T02:58:03.943Z,45.18
2019-06-10T03:03:07.146Z,45.46
2019-06-10T03:08:13.146Z,45.45
2019-06-10T03:13:15.794Z,45.81
2019-06-10T03:18:19.902Z,46.22
2019-06-10T03:23:26.422Z,45.71
2019-06-10T03:28:28.590Z,45.26
2019-06-10T03:33:40.871Z,45.17
2019-06-10T03:38:37.281Z,44.93
2019-06-10T03:43:42.953Z,44.91
2019-06-10T03:48:46.084Z,44.91
2019-06-10T03:53:49.545Z,45.07
2019-06-10T03:58:53.008Z,45.31
2019-06-10T04:03:56.549Z,45.26
2019-06-10T04:09:00.009Z,45.28
2019-06-10T04:14:03.473Z,45.71
2019-06-10T04:19:06.929Z,46.09
2019-06-10T04:24:12.669Z,46.08
2019-06-10T04:29:15.582Z,46.29
2019-06-10T04:34:20.394Z,46.69
2019-06-10T04:39:26.046Z,46.89
2019-06-10T04:44:29.510Z,47.13
2019-06-10T04:49:32.994Z,47.37
2019-06-10T04:54:36.441Z,47.58
2019-06-10T04:59:39.907Z,47.79
2019-06-10T05:04:44.244Z,48.14
2019-06-10T05:09:47.706Z,48.12
2019-06-10T05:14:52.673Z,48.04
2019-06-10T05:19:56.305Z,47.79
2019-06-10T05:25:02.273Z,47.96
2019-06-10T05:30:07.500Z,47.62
2019-06-10T05:35:12.368Z,47.71
2019-06-10T05:40:15.973Z,47.76
2019-06-10T05:45:19.436Z,47.86
2019-06-10T05:50:24.059Z,47.96
2019-06-10T05:55:29.077Z,47.99
2019-06-10T06:00:35.311Z,47.92
2019-06-10T06:05:38.144Z,48.26
2019-06-10T06:10:42.426Z,48.17
2019-06-10T06:15:45.940Z,48.26
2019-06-10T06:20:49.405Z,47.99
2019-06-10T06:25:53.298Z,48.04
2019-06-10T06:30:56.813Z,48.12
2019-06-10T06:36:03.153Z,47.92
2019-06-10T06:41:05.710Z,48.02
2019-06-10T06:46:09.183Z,48.35
2019-06-10T06:51:12.939Z,48.26
2019-06-10T06:56:16.795Z,47.97
2019-06-10T07:01:23.239Z,48.46
2019-06-10T07:06:26.128Z,48.29
2019-06-10T07:11:33.962Z,48.03
2019-06-10T07:16:39.177Z,48.11
2019-06-10T07:22:02.304Z,48.43
2019-06-10T07:26:53.951Z,48.58
2019-06-10T07:31:53.830Z,48.87
2019-06-10T07:36:57.345Z,48.74
2019-06-10T07:42:03.029Z,48.59
2019-06-10T07:47:05.985Z,48.57
2019-06-10T07:52:15.873Z,48.44
2019-06-10T07:57:14.626Z,47.97
2019-06-10T08:02:18.093Z,47.82
2019-06-10T08:07:22.509Z,47.44
2019-06-10T08:12:26.092Z,47.22
2019-06-10T08:17:29.548Z,47.15
2019-06-10T08:22:37.277Z,46.78
2019-06-10T08:27:38.546Z,47.60
2019-06-10T08:32:45.294Z,47.47
2019-06-10T08:37:47.470Z,47.47
2019-06-10T08:42:53.552Z,46.95
2019-06-10T08:47:56.132Z,46.36
2019-06-10T08:53:13.281Z,46.36
2019-06-10T08:58:05.508Z,46.07
2019-06-10T09:03:09.209Z,45.74
2019-06-10T09:08:13.034Z,45.82
2019-06-10T09:13:16.731Z,45.51
2019-06-10T09:18:23.185Z,45.70
2019-06-10T09:23:25.932Z,45.74
2019-06-10T09:28:29.449Z,45.65
2019-06-10T09:33:33.288Z,45.58
2019-06-10T09:38:36.894Z,45.56
2019-06-10T09:43:45.390Z,45.58
2019-06-10T09:48:50.348Z,44.89
2019-06-10T09:54:02.349Z,44.87
2019-06-10T09:58:58.048Z,45.01
2019-06-10T10:04:01.538Z,45.19
2019-06-10T10:09:06.848Z,44.92
2019-06-10T10:14:15.285Z,44.70
2019-06-10T10:19:15.595Z,45.03
2019-06-10T10:24:19.157Z,44.48
2019-06-10T10:29:22.884Z,44.45
2019-06-10T10:34:26.522Z,44.26
2019-06-10T10:39:32.582Z,44.15
2019-06-10T10:44:35.235Z,44.23
2019-06-10T10:49:38.713Z,44.60
2019-06-10T10:54:43.195Z,44.63
2019-06-10T10:59:47.811Z,44.59
2019-06-10T11:04:55.145Z,44.24
2019-06-10T11:09:56.979Z,43.97
2019-06-10T11:15:02.908Z,44.26
2019-06-10T11:20:07.395Z,43.97
2019-06-10T11:25:12.585Z,44.63
2019-06-10T11:30:16.276Z,44.05
2019-06-10T11:35:19.895Z,43.75
2019-06-10T11:40:24.281Z,43.62
2019-06-10T11:45:28.005Z,43.47
2019-06-10T11:50:33.438Z,43.29
2019-06-10T11:55:37.042Z,43.19
2019-06-10T12:00:42.643Z,43.16
2019-06-10T12:05:45.837Z,42.96
2019-06-10T12:10:49.323Z,42.91
2019-06-10T12:16:32.721Z,42.56
2019-06-10T12:21:00.452Z,42.59
2019-06-10T12:26:04.742Z,42.45
2019-06-10T12:31:08.683Z,42.23
2019-06-10T12:36:12.984Z,42.19
2019-06-10T12:41:16.995Z,41.91
2019-06-10T12:46:22.640Z,42.12
2019-06-10T12:51:26.548Z,41.87
2019-06-10T12:56:32.623Z,41.77
2019-06-10T13:01:35.411Z,41.69
2019-06-10T13:06:40.412Z,41.65
2019-06-10T13:11:43.892Z,41.59
2019-06-10T13:16:47.354Z,41.50
2019-06-10T13:53:34.133Z,41.57
2019-06-10T13:58:37.608Z,41.77
2019-06-10T14:03:43.278Z,41.87
2019-06-10T14:08:46.284Z,41.94
2019-06-10T14:13:49.757Z,41.88
2019-06-10T14:18:54.191Z,42.00
2019-06-10T14:23:57.969Z,42.04
2019-06-10T14:29:03.025Z,42.14
2019-06-10T14:39:23.254Z,42.15
2019-06-10T14:44:26.759Z,42.13
2019-06-10T14:49:30.231Z,42.16
2019-06-10T14:54:35.487Z,42.50
2019-06-10T14:59:38.962Z,42.28
2019-06-10T15:04:42.650Z,42.28
2019-06-10T15:09:46.168Z,42.28
2019-06-10T15:14:52.014Z,42.21
2019-06-10T15:51:52.672Z,42.41
2019-06-10T15:56:56.768Z,42.55
2019-06-10T16:02:02.389Z,42.50
2019-06-10T16:07:05.641Z,42.57
2019-06-10T16:12:09.095Z,42.73
2019-06-10T16:17:14.070Z,43.15
2019-06-10T16:22:17.732Z,42.92
2019-06-10T16:27:24.430Z,42.83
2019-06-10T16:32:26.642Z,42.70
2019-06-10T16:37:32.795Z,42.72
2019-06-10T16:42:36.344Z,42.68
2019-06-10T16:47:39.800Z,42.70
2019-06-10T16:52:43.293Z,42.71
2019-06-10T16:57:58.589Z,42.75
2019-06-10T17:02:52.931Z,42.89
2019-06-10T17:07:56.782Z,42.94
2019-06-10T17:13:04.617Z,42.99
2019-06-10T17:18:08.072Z,43.02
2019-06-10T17:23:24.657Z,43.08
2019-06-10T17:28:29.748Z,43.14
2019-06-10T17:33:35.252Z,43.16
2019-06-10T17:38:37.016Z,43.18
2019-06-10T17:43:42.756Z,43.20
2019-06-10T17:48:45.735Z,43.30
2019-06-10T17:53:49.214Z,43.31
2019-06-10T17:58:57.761Z,43.36
2019-06-10T18:03:57.856Z,43.40
2019-06-10T18:09:03.851Z,43.43
2019-06-10T18:14:06.737Z,43.47
2019-06-10T18:19:10.203Z,43.50
2019-06-10T18:24:13.663Z,43.49
2019-06-10T18:29:17.114Z,43.59
2019-06-10T18:34:22.673Z,43.60
2019-06-10T18:39:25.765Z,43.68
2019-06-10T18:44:29.761Z,43.68
2019-06-10T18:49:35.811Z,43.90
2019-06-10T18:54:40.042Z,44.45
2019-06-10T18:59:43.510Z,44.86
2019-06-10T19:04:46.967Z,45.21
2019-06-10T19:09:52.725Z,46.62
2019-06-10T19:14:55.625Z,46.62
2019-06-10T19:19:59.076Z,46.85
2019-06-10T19:25:03.640Z,47.27
2019-06-10T19:30:08.384Z,47.65
2019-06-10T19:35:13.130Z,47.45
2019-06-10T19:40:17.769Z,47.95
2019-06-10T19:45:22.861Z,47.87
2019-06-10T19:50:26.396Z,47.75
2019-06-10T19:55:32.023Z,47.50
2019-06-10T20:00:35.903Z,47.46
2019-06-10T20:05:40.063Z,47.45
2019-06-10T20:10:44.514Z,47.35
2019-06-10T20:15:48.357Z,47.38
2019-06-10T20:20:53.999Z,47.29
2019-06-10T20:25:57.089Z,47.30
2019-06-10T20:31:00.551Z,47.33
2019-06-10T20:36:08.031Z,47.32
2019-06-10T20:41:09.569Z,47.42
2019-06-10T20:46:13.278Z,47.70
2019-06-10T20:51:16.778Z,48.07
2019-06-10T20:56:21.078Z,47.87
2019-06-10T21:01:25.792Z,47.89
2019-06-10T21:06:32.678Z,47.83
2019-06-10T21:11:36.296Z,48.04
2019-06-10T21:16:39.964Z,48.22
2019-06-10T21:21:45.651Z,48.66
2019-06-10T21:26:49.750Z,48.64
2019-06-10T21:31:54.796Z,48.75
2019-06-10T21:36:58.511Z,48.70
2019-06-10T21:42:02.404Z,48.84
2019-06-10T21:47:05.907Z,49.02
2019-06-10T21:52:12.941Z,48.97
2019-06-10T21:57:16.088Z,49.04
2019-06-10T22:02:19.617Z,49.11
2019-06-10T22:07:23.078Z,49.00
2019-06-10T22:12:26.544Z,48.96
2019-06-10T22:17:29.998Z,48.99
2019-06-10T22:22:33.451Z,48.94
2019-06-10T22:27:36.912Z,48.90
2019-06-10T22:32:42.790Z,48.91
2019-06-10T22:37:45.660Z,48.92
2019-06-10T22:42:49.321Z,48.89
2019-06-10T22:47:55.253Z,48.97
2019-06-10T22:52:58.024Z,48.95
2019-06-10T22:58:05.290Z,49.14
2019-06-10T23:03:06.820Z,49.19
2019-06-10T23:08:12.419Z,49.20
2019-06-10T23:13:17.004Z,49.33
2019-06-10T23:18:22.434Z,49.33
2019-06-10T23:23:25.793Z,49.32
2019-06-10T23:28:29.249Z,49.37
2019-06-10T23:33:32.879Z,49.49
2019-06-10T23:38:36.341Z,49.54
2019-06-10T23:43:42.180Z,49.50
2019-06-10T23:48:44.971Z,49.67
2019-06-10T23:53:48.429Z,49.76
2019-06-10T23:58:52.819Z,49.74
